sensor_id;sensor_type;location;lat;lon;timestamp;P1;durP1;ratioP1;P2;durP2;ratioP2
7831;SDS011;3961;42.058;25.586;2022-07-23T00:01:36;7.27;;;3.93;;
7831;SDS011;3961;42.058;25.586;2022-07-23T00:04:01;5.03;;;3.63;;
7831;SDS011;3961;42.058;25.586;2022-07-23T00:06:27;8.73;;;4.33;;
7831;SDS011;3961;42.058;25.586;2022-07-23T00:08:53;8.47;;;4.03;;
7831;SDS011;3961;42.058;25.586;2022-07-23T00:11:18;6.53;;;3.30;;
7831;SDS011;3961;42.058;25.586;2022-07-23T00:13:44;7.80;;;3.50;;
7831;SDS011;3961;42.058;25.586;2022-07-23T00:16:10;7.37;;;3.50;;
7831;SDS011;3961;42.058;25.586;2022-07-23T00:18:35;11.60;;;3.60;;
7831;SDS011;3961;42.058;25.586;2022-07-23T00:21:01;8.30;;;2.87;;
7831;SDS011;3961;42.058;25.586;2022-07-23T00:23:27;11.30;;;3.60;;
7831;SDS011;3961;42.058;25.586;2022-07-23T00:25:54;6.23;;;3.00;;
7831;SDS011;3961;42.058;25.586;2022-07-23T00:28:19;6.90;;;3.47;;
7831;SDS011;3961;42.058;25.586;2022-07-23T00:30:45;8.40;;;3.60;;
7831;SDS011;3961;42.058;25.586;2022-07-23T00:33:11;9.93;;;3.53;;
7831;SDS011;3961;42.058;25.586;2022-07-23T00:35:37;6.10;;;3.50;;
7831;SDS011;3961;42.058;25.586;2022-07-23T00:38:06;5.33;;;2.90;;
7831;SDS011;3961;42.058;25.586;2022-07-23T00:40:33;4.80;;;3.37;;
7831;SDS011;3961;42.058;25.586;2022-07-23T00:42:59;8.33;;;3.20;;
7831;SDS011;3961;42.058;25.586;2022-07-23T00:45:25;6.73;;;3.10;;
7831;SDS011;3961;42.058;25.586;2022-07-23T00:47:52;4.83;;;3.03;;
7831;SDS011;3961;42.058;25.586;2022-07-23T00:50:17;8.80;;;2.80;;
7831;SDS011;3961;42.058;25.586;2022-07-23T00:52:43;6.50;;;3.63;;
7831;SDS011;3961;42.058;25.586;2022-07-23T00:55:10;5.63;;;2.97;;
7831;SDS011;3961;42.058;25.586;2022-07-23T00:57:37;6.93;;;3.40;;
7831;SDS011;3961;42.058;25.586;2022-07-23T01:00:04;5.80;;;3.37;;
7831;SDS011;3961;42.058;25.586;2022-07-23T01:02:32;10.63;;;3.03;;
7831;SDS011;3961;42.058;25.586;2022-07-23T01:04:57;5.90;;;3.27;;
7831;SDS011;3961;42.058;25.586;2022-07-23T01:07:23;7.90;;;3.10;;
7831;SDS011;3961;42.058;25.586;2022-07-23T01:09:50;7.30;;;3.67;;
7831;SDS011;3961;42.058;25.586;2022-07-23T01:12:16;5.67;;;3.67;;
7831;SDS011;3961;42.058;25.586;2022-07-23T01:14:42;5.80;;;3.53;;
7831;SDS011;3961;42.058;25.586;2022-07-23T01:17:08;9.13;;;3.53;;
7831;SDS011;3961;42.058;25.586;2022-07-23T01:19:34;7.37;;;3.60;;
7831;SDS011;3961;42.058;25.586;2022-07-23T01:22:01;7.17;;;3.47;;
7831;SDS011;3961;42.058;25.586;2022-07-23T01:24:28;7.43;;;4.30;;
7831;SDS011;3961;42.058;25.586;2022-07-23T01:26:54;7.27;;;3.23;;
7831;SDS011;3961;42.058;25.586;2022-07-23T01:29:20;9.83;;;3.63;;
7831;SDS011;3961;42.058;25.586;2022-07-23T01:31:46;6.57;;;3.60;;
7831;SDS011;3961;42.058;25.586;2022-07-23T01:34:13;7.33;;;3.50;;
7831;SDS011;3961;42.058;25.586;2022-07-23T01:36:39;4.00;;;3.00;;
7831;SDS011;3961;42.058;25.586;2022-07-23T01:39:05;9.43;;;3.93;;
7831;SDS011;3961;42.058;25.586;2022-07-23T01:41:31;6.50;;;3.60;;
7831;SDS011;3961;42.058;25.586;2022-07-23T01:43:57;7.10;;;4.00;;
7831;SDS011;3961;42.058;25.586;2022-07-23T01:46:23;5.63;;;3.40;;
7831;SDS011;3961;42.058;25.586;2022-07-23T01:48:49;8.50;;;3.77;;
7831;SDS011;3961;42.058;25.586;2022-07-23T01:51:14;5.70;;;3.20;;
7831;SDS011;3961;42.058;25.586;2022-07-23T01:53:40;9.87;;;3.60;;
7831;SDS011;3961;42.058;25.586;2022-07-23T01:56:06;6.07;;;3.70;;
7831;SDS011;3961;42.058;25.586;2022-07-23T01:58:32;7.13;;;3.90;;
7831;SDS011;3961;42.058;25.586;2022-07-23T02:00:57;7.20;;;3.60;;
7831;SDS011;3961;42.058;25.586;2022-07-23T02:03:23;5.87;;;3.30;;
7831;SDS011;3961;42.058;25.586;2022-07-23T02:05:49;7.57;;;4.37;;
7831;SDS011;3961;42.058;25.586;2022-07-23T02:08:15;3.93;;;3.13;;
7831;SDS011;3961;42.058;25.586;2022-07-23T02:10:41;5.63;;;3.60;;
7831;SDS011;3961;42.058;25.586;2022-07-23T02:13:06;4.67;;;3.20;;
7831;SDS011;3961;42.058;25.586;2022-07-23T02:15:32;10.37;;;3.20;;
7831;SDS011;3961;42.058;25.586;2022-07-23T02:17:58;8.17;;;3.60;;
7831;SDS011;3961;42.058;25.586;2022-07-23T02:20:24;5.87;;;3.47;;
7831;SDS011;3961;42.058;25.586;2022-07-23T02:22:50;7.57;;;3.13;;
7831;SDS011;3961;42.058;25.586;2022-07-23T02:25:16;8.67;;;3.40;;
7831;SDS011;3961;42.058;25.586;2022-07-23T02:27:42;5.33;;;3.73;;
7831;SDS011;3961;42.058;25.586;2022-07-23T02:30:08;6.47;;;3.93;;
7831;SDS011;3961;42.058;25.586;2022-07-23T02:32:34;15.93;;;5.87;;
7831;SDS011;3961;42.058;25.586;2022-07-23T02:35:01;5.77;;;3.77;;
7831;SDS011;3961;42.058;25.586;2022-07-23T02:37:27;10.87;;;3.80;;
7831;SDS011;3961;42.058;25.586;2022-07-23T02:39:53;10.63;;;3.80;;
7831;SDS011;3961;42.058;25.586;2022-07-23T02:42:19;8.60;;;3.50;;
7831;SDS011;3961;42.058;25.586;2022-07-23T02:44:44;13.03;;;3.87;;
7831;SDS011;3961;42.058;25.586;2022-07-23T02:47:10;8.73;;;3.90;;
7831;SDS011;3961;42.058;25.586;2022-07-23T02:49:36;6.67;;;4.13;;
7831;SDS011;3961;42.058;25.586;2022-07-23T02:52:01;10.73;;;4.70;;
7831;SDS011;3961;42.058;25.586;2022-07-23T02:54:27;6.80;;;3.40;;
7831;SDS011;3961;42.058;25.586;2022-07-23T02:56:53;7.43;;;3.67;;
7831;SDS011;3961;42.058;25.586;2022-07-23T02:59:18;12.77;;;4.07;;
7831;SDS011;3961;42.058;25.586;2022-07-23T03:01:44;13.03;;;4.23;;
7831;SDS011;3961;42.058;25.586;2022-07-23T03:04:11;10.43;;;4.17;;
7831;SDS011;3961;42.058;25.586;2022-07-23T03:06:36;11.50;;;4.17;;
7831;SDS011;3961;42.058;25.586;2022-07-23T03:09:02;7.57;;;3.83;;
7831;SDS011;3961;42.058;25.586;2022-07-23T03:11:29;7.03;;;4.07;;
7831;SDS011;3961;42.058;25.586;2022-07-23T03:13:54;8.10;;;4.00;;
7831;SDS011;3961;42.058;25.586;2022-07-23T03:16:20;11.43;;;4.10;;
7831;SDS011;3961;42.058;25.586;2022-07-23T03:18:46;9.13;;;4.20;;
7831;SDS011;3961;42.058;25.586;2022-07-23T03:21:11;6.93;;;4.43;;
7831;SDS011;3961;42.058;25.586;2022-07-23T03:23:37;9.93;;;3.77;;
7831;SDS011;3961;42.058;25.586;2022-07-23T03:26:03;11.70;;;3.90;;
7831;SDS011;3961;42.058;25.586;2022-07-23T03:28:28;8.77;;;3.90;;
7831;SDS011;3961;42.058;25.586;2022-07-23T03:30:54;10.40;;;4.00;;
7831;SDS011;3961;42.058;25.586;2022-07-23T03:33:20;7.13;;;3.77;;
7831;SDS011;3961;42.058;25.586;2022-07-23T03:35:46;15.80;;;4.43;;
7831;SDS011;3961;42.058;25.586;2022-07-23T03:38:12;6.33;;;3.63;;
7831;SDS011;3961;42.058;25.586;2022-07-23T03:40:38;7.63;;;3.87;;
7831;SDS011;3961;42.058;25.586;2022-07-23T03:43:04;7.17;;;3.90;;
7831;SDS011;3961;42.058;25.586;2022-07-23T03:45:29;9.10;;;4.10;;
7831;SDS011;3961;42.058;25.586;2022-07-23T03:47:55;7.17;;;3.90;;
7831;SDS011;3961;42.058;25.586;2022-07-23T03:50:21;9.37;;;3.97;;
7831;SDS011;3961;42.058;25.586;2022-07-23T03:52:47;6.73;;;3.63;;
7831;SDS011;3961;42.058;25.586;2022-07-23T03:55:13;7.30;;;3.60;;
7831;SDS011;3961;42.058;25.586;2022-07-23T03:57:38;9.43;;;3.40;;
7831;SDS011;3961;42.058;25.586;2022-07-23T04:00:05;19.50;;;4.53;;
7831;SDS011;3961;42.058;25.586;2022-07-23T04:02:32;18.53;;;8.83;;
7831;SDS011;3961;42.058;25.586;2022-07-23T04:04:58;18.40;;;5.30;;
7831;SDS011;3961;42.058;25.586;2022-07-23T04:07:25;12.93;;;4.60;;
7831;SDS011;3961;42.058;25.586;2022-07-23T04:09:50;22.40;;;5.20;;
7831;SDS011;3961;42.058;25.586;2022-07-23T04:12:16;9.40;;;3.53;;
7831;SDS011;3961;42.058;25.586;2022-07-23T04:14:41;11.07;;;4.00;;
7831;SDS011;3961;42.058;25.586;2022-07-23T04:17:07;8.10;;;3.57;;
7831;SDS011;3961;42.058;25.586;2022-07-23T04:19:33;11.60;;;3.87;;
7831;SDS011;3961;42.058;25.586;2022-07-23T04:22:00;15.17;;;3.93;;
7831;SDS011;3961;42.058;25.586;2022-07-23T04:24:26;8.23;;;3.77;;
7831;SDS011;3961;42.058;25.586;2022-07-23T04:26:51;13.88;;;4.18;;
7831;SDS011;3961;42.058;25.586;2022-07-23T04:29:18;9.57;;;4.03;;
7831;SDS011;3961;42.058;25.586;2022-07-23T04:31:43;13.02;;;4.30;;
7831;SDS011;3961;42.058;25.586;2022-07-23T04:34:09;7.60;;;3.67;;
7831;SDS011;3961;42.058;25.586;2022-07-23T04:36:34;14.27;;;5.88;;
7831;SDS011;3961;42.058;25.586;2022-07-23T04:39:00;16.38;;;6.60;;
7831;SDS011;3961;42.058;25.586;2022-07-23T04:41:25;18.90;;;6.43;;
7831;SDS011;3961;42.058;25.586;2022-07-23T04:43:51;11.73;;;4.25;;
7831;SDS011;3961;42.058;25.586;2022-07-23T04:46:17;12.70;;;4.40;;
7831;SDS011;3961;42.058;25.586;2022-07-23T04:48:43;13.60;;;4.85;;
7831;SDS011;3961;42.058;25.586;2022-07-23T04:51:08;12.88;;;4.53;;
7831;SDS011;3961;42.058;25.586;2022-07-23T04:53:34;15.55;;;4.88;;
7831;SDS011;3961;42.058;25.586;2022-07-23T04:56:02;11.23;;;3.65;;
7831;SDS011;3961;42.058;25.586;2022-07-23T04:58:28;10.30;;;3.83;;
7831;SDS011;3961;42.058;25.586;2022-07-23T05:00:53;9.13;;;3.67;;
7831;SDS011;3961;42.058;25.586;2022-07-23T05:03:19;19.40;;;5.57;;
7831;SDS011;3961;42.058;25.586;2022-07-23T05:05:45;4.80;;;4.07;;
7831;SDS011;3961;42.058;25.586;2022-07-23T05:08:11;7.70;;;3.75;;
7831;SDS011;3961;42.058;25.586;2022-07-23T05:10:36;9.20;;;3.55;;
7831;SDS011;3961;42.058;25.586;2022-07-23T05:13:02;11.70;;;4.15;;
7831;SDS011;3961;42.058;25.586;2022-07-23T05:15:27;9.57;;;4.32;;
7831;SDS011;3961;42.058;25.586;2022-07-23T05:17:53;10.10;;;4.32;;
7831;SDS011;3961;42.058;25.586;2022-07-23T05:20:18;10.90;;;4.30;;
7831;SDS011;3961;42.058;25.586;2022-07-23T05:22:44;15.23;;;5.22;;
7831;SDS011;3961;42.058;25.586;2022-07-23T05:25:09;9.20;;;4.70;;
7831;SDS011;3961;42.058;25.586;2022-07-23T05:27:35;8.93;;;4.57;;
7831;SDS011;3961;42.058;25.586;2022-07-23T05:30:00;10.55;;;4.70;;
7831;SDS011;3961;42.058;25.586;2022-07-23T05:32:26;13.27;;;4.80;;
7831;SDS011;3961;42.058;25.586;2022-07-23T05:34:52;10.70;;;4.60;;
7831;SDS011;3961;42.058;25.586;2022-07-23T05:37:17;17.25;;;5.70;;
7831;SDS011;3961;42.058;25.586;2022-07-23T05:39:43;9.70;;;4.05;;
7831;SDS011;3961;42.058;25.586;2022-07-23T05:42:09;7.50;;;3.97;;
7831;SDS011;3961;42.058;25.586;2022-07-23T05:44:34;14.43;;;4.72;;
7831;SDS011;3961;42.058;25.586;2022-07-23T05:47:00;18.80;;;4.65;;
7831;SDS011;3961;42.058;25.586;2022-07-23T05:49:25;11.77;;;5.30;;
7831;SDS011;3961;42.058;25.586;2022-07-23T05:51:51;24.23;;;5.47;;
7831;SDS011;3961;42.058;25.586;2022-07-23T05:54:16;14.55;;;5.97;;
7831;SDS011;3961;42.058;25.586;2022-07-23T05:56:42;13.10;;;5.70;;
7831;SDS011;3961;42.058;25.586;2022-07-23T05:59:07;13.32;;;6.20;;
7831;SDS011;3961;42.058;25.586;2022-07-23T06:01:33;9.50;;;6.18;;
7831;SDS011;3961;42.058;25.586;2022-07-23T06:03:59;8.85;;;5.72;;
7831;SDS011;3961;42.058;25.586;2022-07-23T06:06:24;9.13;;;5.73;;
7831;SDS011;3961;42.058;25.586;2022-07-23T06:08:50;10.33;;;5.43;;
7831;SDS011;3961;42.058;25.586;2022-07-23T06:11:15;12.00;;;5.30;;
7831;SDS011;3961;42.058;25.586;2022-07-23T06:13:40;16.77;;;6.20;;
7831;SDS011;3961;42.058;25.586;2022-07-23T06:16:06;9.00;;;6.63;;
7831;SDS011;3961;42.058;25.586;2022-07-23T06:18:32;8.67;;;5.47;;
7831;SDS011;3961;42.058;25.586;2022-07-23T06:20:57;10.13;;;5.40;;
7831;SDS011;3961;42.058;25.586;2022-07-23T06:23:23;10.20;;;5.63;;
7831;SDS011;3961;42.058;25.586;2022-07-23T06:25:48;11.55;;;5.80;;
7831;SDS011;3961;42.058;25.586;2022-07-23T06:28:14;11.50;;;5.95;;
7831;SDS011;3961;42.058;25.586;2022-07-23T06:30:39;9.38;;;6.22;;
7831;SDS011;3961;42.058;25.586;2022-07-23T06:33:05;11.47;;;6.50;;
7831;SDS011;3961;42.058;25.586;2022-07-23T06:35:30;13.87;;;6.03;;
7831;SDS011;3961;42.058;25.586;2022-07-23T06:37:56;8.50;;;5.85;;
7831;SDS011;3961;42.058;25.586;2022-07-23T06:40:21;13.70;;;6.38;;
7831;SDS011;3961;42.058;25.586;2022-07-23T06:42:47;13.75;;;6.30;;
7831;SDS011;3961;42.058;25.586;2022-07-23T06:45:13;12.07;;;6.03;;
7831;SDS011;3961;42.058;25.586;2022-07-23T06:47:38;16.95;;;5.68;;
7831;SDS011;3961;42.058;25.586;2022-07-23T06:50:05;12.20;;;5.88;;
7831;SDS011;3961;42.058;25.586;2022-07-23T06:52:31;11.82;;;5.90;;
7831;SDS011;3961;42.058;25.586;2022-07-23T06:54:56;12.23;;;5.70;;
7831;SDS011;3961;42.058;25.586;2022-07-23T06:57:22;10.38;;;5.93;;
7831;SDS011;3961;42.058;25.586;2022-07-23T06:59:48;17.00;;;6.30;;
7831;SDS011;3961;42.058;25.586;2022-07-23T07:02:13;11.35;;;5.80;;
7831;SDS011;3961;42.058;25.586;2022-07-23T07:04:39;10.55;;;5.93;;
7831;SDS011;3961;42.058;25.586;2022-07-23T07:07:04;8.77;;;5.80;;
7831;SDS011;3961;42.058;25.586;2022-07-23T07:09:30;11.63;;;5.72;;
7831;SDS011;3961;42.058;25.586;2022-07-23T07:11:55;16.58;;;6.05;;
7831;SDS011;3961;42.058;25.586;2022-07-23T07:14:21;17.48;;;8.80;;
7831;SDS011;3961;42.058;25.586;2022-07-23T07:16:47;14.20;;;6.35;;
7831;SDS011;3961;42.058;25.586;2022-07-23T07:19:13;9.13;;;6.07;;
7831;SDS011;3961;42.058;25.586;2022-07-23T07:21:38;13.98;;;6.03;;
7831;SDS011;3961;42.058;25.586;2022-07-23T07:24:04;16.50;;;6.18;;
7831;SDS011;3961;42.058;25.586;2022-07-23T07:26:30;12.63;;;7.38;;
7831;SDS011;3961;42.058;25.586;2022-07-23T07:28:56;8.93;;;4.80;;
7831;SDS011;3961;42.058;25.586;2022-07-23T07:31:22;10.90;;;4.95;;
7831;SDS011;3961;42.058;25.586;2022-07-23T07:33:47;10.73;;;5.72;;
7831;SDS011;3961;42.058;25.586;2022-07-23T07:36:13;15.27;;;5.43;;
7831;SDS011;3961;42.058;25.586;2022-07-23T07:38:38;14.48;;;5.15;;
7831;SDS011;3961;42.058;25.586;2022-07-23T07:41:04;10.48;;;5.28;;
7831;SDS011;3961;42.058;25.586;2022-07-23T07:43:29;7.72;;;4.97;;
7831;SDS011;3961;42.058;25.586;2022-07-23T07:45:55;9.93;;;5.32;;
7831;SDS011;3961;42.058;25.586;2022-07-23T07:48:20;15.90;;;5.70;;
7831;SDS011;3961;42.058;25.586;2022-07-23T07:50:46;9.05;;;4.88;;
7831;SDS011;3961;42.058;25.586;2022-07-23T07:53:12;37.58;;;7.03;;
7831;SDS011;3961;42.058;25.586;2022-07-23T07:55:37;9.55;;;4.53;;
7831;SDS011;3961;42.058;25.586;2022-07-23T07:58:03;11.63;;;5.80;;
7831;SDS011;3961;42.058;25.586;2022-07-23T08:00:28;25.52;;;5.85;;
7831;SDS011;3961;42.058;25.586;2022-07-23T08:02:54;8.23;;;4.95;;
7831;SDS011;3961;42.058;25.586;2022-07-23T08:05:23;7.95;;;4.45;;
7831;SDS011;3961;42.058;25.586;2022-07-23T08:07:50;7.50;;;4.90;;
7831;SDS011;3961;42.058;25.586;2022-07-23T08:10:16;9.68;;;4.40;;
7831;SDS011;3961;42.058;25.586;2022-07-23T08:12:42;11.05;;;4.70;;
7831;SDS011;3961;42.058;25.586;2022-07-23T08:15:13;11.02;;;4.95;;
7831;SDS011;3961;42.058;25.586;2022-07-23T08:17:41;7.20;;;3.97;;
7831;SDS011;3961;42.058;25.586;2022-07-23T08:20:08;7.60;;;4.80;;
7831;SDS011;3961;42.058;25.586;2022-07-23T08:22:44;9.00;;;4.85;;
7831;SDS011;3961;42.058;25.586;2022-07-23T08:25:14;9.15;;;4.35;;
7831;SDS011;3961;42.058;25.586;2022-07-23T08:27:41;12.27;;;6.20;;
7831;SDS011;3961;42.058;25.586;2022-07-23T08:30:07;8.70;;;4.93;;
7831;SDS011;3961;42.058;25.586;2022-07-23T08:32:33;8.93;;;5.15;;
7831;SDS011;3961;42.058;25.586;2022-07-23T08:34:59;8.00;;;4.32;;
7831;SDS011;3961;42.058;25.586;2022-07-23T08:37:24;13.30;;;4.35;;
7831;SDS011;3961;42.058;25.586;2022-07-23T08:39:50;7.45;;;3.63;;
7831;SDS011;3961;42.058;25.586;2022-07-23T08:42:16;5.97;;;3.88;;
7831;SDS011;3961;42.058;25.586;2022-07-23T08:44:42;13.70;;;4.10;;
7831;SDS011;3961;42.058;25.586;2022-07-23T08:47:11;8.80;;;3.90;;
7831;SDS011;3961;42.058;25.586;2022-07-23T08:49:38;9.45;;;3.75;;
7831;SDS011;3961;42.058;25.586;2022-07-23T08:52:04;7.22;;;4.00;;
7831;SDS011;3961;42.058;25.586;2022-07-23T08:54:31;9.45;;;4.03;;
7831;SDS011;3961;42.058;25.586;2022-07-23T08:56:57;12.80;;;3.88;;
7831;SDS011;3961;42.058;25.586;2022-07-23T08:59:22;9.52;;;3.92;;
7831;SDS011;3961;42.058;25.586;2022-07-23T09:01:48;8.48;;;4.55;;
7831;SDS011;3961;42.058;25.586;2022-07-23T09:04:13;8.98;;;4.13;;
7831;SDS011;3961;42.058;25.586;2022-07-23T09:06:39;6.07;;;3.92;;
7831;SDS011;3961;42.058;25.586;2022-07-23T09:09:20;9.10;;;3.78;;
7831;SDS011;3961;42.058;25.586;2022-07-23T09:11:47;7.53;;;3.53;;
7831;SDS011;3961;42.058;25.586;2022-07-23T09:14:13;18.45;;;4.50;;
7831;SDS011;3961;42.058;25.586;2022-07-23T09:16:39;8.35;;;3.78;;
7831;SDS011;3961;42.058;25.586;2022-07-23T09:19:05;6.18;;;4.00;;
7831;SDS011;3961;42.058;25.586;2022-07-23T09:21:33;6.82;;;3.67;;
7831;SDS011;3961;42.058;25.586;2022-07-23T09:26:28;6.05;;;3.60;;
7831;SDS011;3961;42.058;25.586;2022-07-23T09:28:58;5.88;;;3.90;;
7831;SDS011;3961;42.058;25.586;2022-07-23T09:31:30;12.30;;;4.57;;
7831;SDS011;3961;42.058;25.586;2022-07-23T09:34:08;6.28;;;4.15;;
7831;SDS011;3961;42.058;25.586;2022-07-23T09:36:44;15.02;;;6.20;;
7831;SDS011;3961;42.058;25.586;2022-07-23T09:39:11;8.73;;;3.60;;
7831;SDS011;3961;42.058;25.586;2022-07-23T09:41:42;12.40;;;3.85;;
7831;SDS011;3961;42.058;25.586;2022-07-23T09:44:15;9.13;;;3.38;;
7831;SDS011;3961;42.058;25.586;2022-07-23T09:46:44;6.55;;;3.92;;
7831;SDS011;3961;42.058;25.586;2022-07-23T09:49:11;9.95;;;3.38;;
7831;SDS011;3961;42.058;25.586;2022-07-23T09:51:45;8.00;;;4.10;;
7831;SDS011;3961;42.058;25.586;2022-07-23T09:54:20;9.02;;;3.65;;
7831;SDS011;3961;42.058;25.586;2022-07-23T09:56:49;11.82;;;3.42;;
7831;SDS011;3961;42.058;25.586;2022-07-23T09:59:16;5.85;;;3.58;;
7831;SDS011;3961;42.058;25.586;2022-07-23T10:01:45;8.07;;;4.50;;
7831;SDS011;3961;42.058;25.586;2022-07-23T10:04:11;10.57;;;4.13;;
7831;SDS011;3961;42.058;25.586;2022-07-23T10:06:38;9.18;;;3.83;;
7831;SDS011;3961;42.058;25.586;2022-07-23T10:09:06;9.73;;;3.90;;
7831;SDS011;3961;42.058;25.586;2022-07-23T10:11:34;8.75;;;3.33;;
7831;SDS011;3961;42.058;25.586;2022-07-23T10:14:01;10.23;;;3.58;;
7831;SDS011;3961;42.058;25.586;2022-07-23T10:16:29;8.95;;;3.67;;
7831;SDS011;3961;42.058;25.586;2022-07-23T10:18:55;16.23;;;4.00;;
7831;SDS011;3961;42.058;25.586;2022-07-23T10:26:44;7.15;;;3.90;;
7831;SDS011;3961;42.058;25.586;2022-07-23T10:29:27;9.23;;;3.90;;
7831;SDS011;3961;42.058;25.586;2022-07-23T10:38:00;6.95;;;3.75;;
7831;SDS011;3961;42.058;25.586;2022-07-23T10:40:32;26.48;;;4.63;;
7831;SDS011;3961;42.058;25.586;2022-07-23T10:42:58;13.63;;;4.35;;
7831;SDS011;3961;42.058;25.586;2022-07-23T10:47:52;8.35;;;3.75;;
7831;SDS011;3961;42.058;25.586;2022-07-23T10:50:25;5.75;;;3.88;;
7831;SDS011;3961;42.058;25.586;2022-07-23T10:53:08;9.63;;;3.75;;
7831;SDS011;3961;42.058;25.586;2022-07-23T10:55:50;5.47;;;3.53;;
7831;SDS011;3961;42.058;25.586;2022-07-23T10:58:18;7.82;;;3.78;;
7831;SDS011;3961;42.058;25.586;2022-07-23T11:01:30;7.25;;;4.18;;
7831;SDS011;3961;42.058;25.586;2022-07-23T11:04:01;10.93;;;3.78;;
7831;SDS011;3961;42.058;25.586;2022-07-23T11:09:23;13.75;;;3.95;;
7831;SDS011;3961;42.058;25.586;2022-07-23T11:20:16;10.27;;;4.05;;
7831;SDS011;3961;42.058;25.586;2022-07-23T11:25:10;6.68;;;3.58;;
7831;SDS011;3961;42.058;25.586;2022-07-23T11:27:41;7.78;;;3.80;;
7831;SDS011;3961;42.058;25.586;2022-07-23T11:30:09;6.60;;;4.05;;
7831;SDS011;3961;42.058;25.586;2022-07-23T11:35:33;5.32;;;3.72;;
7831;SDS011;3961;42.058;25.586;2022-07-23T11:38:07;7.32;;;4.13;;
7831;SDS011;3961;42.058;25.586;2022-07-23T11:40:38;9.15;;;3.90;;
7831;SDS011;3961;42.058;25.586;2022-07-23T11:43:05;11.13;;;4.30;;
7831;SDS011;3961;42.058;25.586;2022-07-23T11:45:39;7.63;;;4.03;;
7831;SDS011;3961;42.058;25.586;2022-07-23T11:50:49;11.65;;;4.38;;
7831;SDS011;3961;42.058;25.586;2022-07-23T11:55:47;9.60;;;3.88;;
7831;SDS011;3961;42.058;25.586;2022-07-23T11:58:13;13.73;;;3.92;;
7831;SDS011;3961;42.058;25.586;2022-07-23T12:00:40;10.00;;;4.72;;
7831;SDS011;3961;42.058;25.586;2022-07-23T12:03:06;10.15;;;4.18;;
7831;SDS011;3961;42.058;25.586;2022-07-23T12:05:34;9.27;;;4.07;;
7831;SDS011;3961;42.058;25.586;2022-07-23T12:08:01;10.32;;;4.10;;
7831;SDS011;3961;42.058;25.586;2022-07-23T12:10:37;11.00;;;4.38;;
7831;SDS011;3961;42.058;25.586;2022-07-23T12:13:06;6.70;;;3.83;;
7831;SDS011;3961;42.058;25.586;2022-07-23T12:15:45;7.68;;;3.63;;
7831;SDS011;3961;42.058;25.586;2022-07-23T12:18:14;6.78;;;4.03;;
7831;SDS011;3961;42.058;25.586;2022-07-23T12:20:46;8.00;;;4.40;;
7831;SDS011;3961;42.058;25.586;2022-07-23T12:23:17;11.77;;;4.65;;
7831;SDS011;3961;42.058;25.586;2022-07-23T12:25:44;5.97;;;4.07;;
7831;SDS011;3961;42.058;25.586;2022-07-23T12:28:18;7.78;;;3.72;;
7831;SDS011;3961;42.058;25.586;2022-07-23T12:30:49;7.95;;;4.60;;
7831;SDS011;3961;42.058;25.586;2022-07-23T12:35:53;9.07;;;4.25;;
7831;SDS011;3961;42.058;25.586;2022-07-23T12:38:22;9.43;;;4.38;;
7831;SDS011;3961;42.058;25.586;2022-07-23T12:40:49;7.22;;;4.30;;
7831;SDS011;3961;42.058;25.586;2022-07-23T12:48:16;9.82;;;4.25;;
7831;SDS011;3961;42.058;25.586;2022-07-23T12:50:51;13.07;;;4.30;;
7831;SDS011;3961;42.058;25.586;2022-07-23T12:53:29;7.93;;;4.25;;
7831;SDS011;3961;42.058;25.586;2022-07-23T12:55:57;6.90;;;4.43;;
7831;SDS011;3961;42.058;25.586;2022-07-23T12:58:25;11.15;;;4.22;;
7831;SDS011;3961;42.058;25.586;2022-07-23T13:00:55;8.25;;;4.07;;
7831;SDS011;3961;42.058;25.586;2022-07-23T13:03:25;14.00;;;4.80;;
7831;SDS011;3961;42.058;25.586;2022-07-23T13:05:53;9.63;;;4.10;;
7831;SDS011;3961;42.058;25.586;2022-07-23T13:08:21;11.80;;;4.20;;
7831;SDS011;3961;42.058;25.586;2022-07-23T13:10:47;9.82;;;5.43;;
7831;SDS011;3961;42.058;25.586;2022-07-23T13:13:14;7.70;;;4.28;;
7831;SDS011;3961;42.058;25.586;2022-07-23T13:15:41;7.38;;;4.13;;
7831;SDS011;3961;42.058;25.586;2022-07-23T13:18:07;9.35;;;4.03;;
7831;SDS011;3961;42.058;25.586;2022-07-23T13:20:33;10.27;;;3.88;;
7831;SDS011;3961;42.058;25.586;2022-07-23T13:22:59;10.43;;;4.22;;
7831;SDS011;3961;42.058;25.586;2022-07-23T13:25:26;6.75;;;4.20;;
7831;SDS011;3961;42.058;25.586;2022-07-23T13:27:52;8.82;;;4.13;;
7831;SDS011;3961;42.058;25.586;2022-07-23T13:30:18;12.80;;;4.78;;
7831;SDS011;3961;42.058;25.586;2022-07-23T13:32:43;7.38;;;4.20;;
7831;SDS011;3961;42.058;25.586;2022-07-23T13:35:09;10.98;;;4.47;;
7831;SDS011;3961;42.058;25.586;2022-07-23T13:37:35;9.45;;;4.10;;
7831;SDS011;3961;42.058;25.586;2022-07-23T13:40:01;7.22;;;4.47;;
7831;SDS011;3961;42.058;25.586;2022-07-23T13:42:27;10.57;;;4.07;;
7831;SDS011;3961;42.058;25.586;2022-07-23T13:44:53;6.72;;;3.90;;
7831;SDS011;3961;42.058;25.586;2022-07-23T13:47:19;12.32;;;3.97;;
7831;SDS011;3961;42.058;25.586;2022-07-23T13:49:45;14.10;;;4.47;;
7831;SDS011;3961;42.058;25.586;2022-07-23T13:52:11;8.95;;;4.35;;
7831;SDS011;3961;42.058;25.586;2022-07-23T13:54:36;7.85;;;4.88;;
7831;SDS011;3961;42.058;25.586;2022-07-23T13:57:02;11.43;;;4.38;;
7831;SDS011;3961;42.058;25.586;2022-07-23T13:59:28;10.52;;;4.80;;
7831;SDS011;3961;42.058;25.586;2022-07-23T14:01:54;11.27;;;4.45;;
7831;SDS011;3961;42.058;25.586;2022-07-23T14:04:20;12.45;;;4.40;;
7831;SDS011;3961;42.058;25.586;2022-07-23T14:06:46;11.05;;;5.03;;
7831;SDS011;3961;42.058;25.586;2022-07-23T14:09:12;11.10;;;4.55;;
7831;SDS011;3961;42.058;25.586;2022-07-23T14:11:37;8.20;;;4.18;;
7831;SDS011;3961;42.058;25.586;2022-07-23T14:14:04;11.63;;;6.55;;
7831;SDS011;3961;42.058;25.586;2022-07-23T14:16:30;11.32;;;4.60;;
7831;SDS011;3961;42.058;25.586;2022-07-23T14:18:55;10.10;;;4.80;;
7831;SDS011;3961;42.058;25.586;2022-07-23T14:21:21;9.82;;;4.82;;
7831;SDS011;3961;42.058;25.586;2022-07-23T14:23:46;9.20;;;4.65;;
7831;SDS011;3961;42.058;25.586;2022-07-23T14:26:12;11.93;;;4.53;;
7831;SDS011;3961;42.058;25.586;2022-07-23T14:28:38;7.15;;;4.70;;
7831;SDS011;3961;42.058;25.586;2022-07-23T14:31:04;15.88;;;4.40;;
7831;SDS011;3961;42.058;25.586;2022-07-23T14:33:29;8.52;;;4.40;;
7831;SDS011;3961;42.058;25.586;2022-07-23T14:35:55;8.40;;;4.10;;
7831;SDS011;3961;42.058;25.586;2022-07-23T14:38:21;13.90;;;5.15;;
7831;SDS011;3961;42.058;25.586;2022-07-23T14:40:46;8.70;;;4.97;;
7831;SDS011;3961;42.058;25.586;2022-07-23T14:43:12;7.40;;;4.72;;
7831;SDS011;3961;42.058;25.586;2022-07-23T14:45:38;10.65;;;4.95;;
7831;SDS011;3961;42.058;25.586;2022-07-23T14:48:03;8.15;;;4.50;;
7831;SDS011;3961;42.058;25.586;2022-07-23T14:50:29;12.00;;;4.70;;
7831;SDS011;3961;42.058;25.586;2022-07-23T14:52:54;7.22;;;4.47;;
7831;SDS011;3961;42.058;25.586;2022-07-23T14:55:20;11.18;;;5.43;;
7831;SDS011;3961;42.058;25.586;2022-07-23T14:57:46;12.45;;;4.78;;
7831;SDS011;3961;42.058;25.586;2022-07-23T15:00:12;10.05;;;4.53;;
7831;SDS011;3961;42.058;25.586;2022-07-23T15:02:38;8.95;;;4.70;;
7831;SDS011;3961;42.058;25.586;2022-07-23T15:05:04;9.32;;;4.72;;
7831;SDS011;3961;42.058;25.586;2022-07-23T15:07:30;10.90;;;4.88;;
7831;SDS011;3961;42.058;25.586;2022-07-23T15:09:56;14.77;;;5.30;;
7831;SDS011;3961;42.058;25.586;2022-07-23T15:12:23;12.70;;;4.90;;
7831;SDS011;3961;42.058;25.586;2022-07-23T15:14:48;10.18;;;4.85;;
7831;SDS011;3961;42.058;25.586;2022-07-23T15:17:15;10.95;;;4.50;;
7831;SDS011;3961;42.058;25.586;2022-07-23T15:19:40;8.77;;;4.38;;
7831;SDS011;3961;42.058;25.586;2022-07-23T15:22:06;9.13;;;4.15;;
7831;SDS011;3961;42.058;25.586;2022-07-23T15:24:32;10.40;;;5.00;;
7831;SDS011;3961;42.058;25.586;2022-07-23T15:26:58;10.20;;;4.97;;
7831;SDS011;3961;42.058;25.586;2022-07-23T15:29:23;14.55;;;4.60;;
7831;SDS011;3961;42.058;25.586;2022-07-23T15:31:49;13.65;;;4.90;;
7831;SDS011;3961;42.058;25.586;2022-07-23T15:34:15;12.43;;;5.00;;
7831;SDS011;3961;42.058;25.586;2022-07-23T15:36:40;12.88;;;4.97;;
7831;SDS011;3961;42.058;25.586;2022-07-23T15:39:06;13.38;;;5.25;;